

Wyoming Mesonet
Water Resources Data System and State Climate Office
SEO WACNet, UW USACE UMRB, USDA-ARS, BLM
| Wind | Soil | |||||||||||||||||||
| Temp | Precip | Speed | Dir | Gust | Dir | Humidity | Pressure | Solar | Snow | Temperature (Deg F) | Moisture (%) | |||||||||
| Date Time (MST) | (F) | (in) | (mph) | (deg) | (mph) | (deg) | (%) | (Mbars) | (w/m^2) | (in) | 5cm | 10cm | 20cm | 50cm | 1m | 5cm | 10cm | 20cm | 50cm | 1m |
| 2026-08-30 00:00:00 | 59.56 | 0.00 | 4.56 | 178 | 7.21 | 148 | 72.8 | 881.0 | 0.0 | -0.3 | 77.36 | 78.80 | 79.16 | 76.28 | 74.30 | 11.4% | 12.8% | 22.8% | 20.2% | 20.0% |
| 2026-08-30 01:00:00 | 57.70 | 0.00 | 5.59 | 163 | 7.21 | 164 | 77.7 | 881.0 | 0.0 | -0.2 | 76.10 | 77.90 | 78.98 | 76.46 | 74.30 | 11.4% | 12.7% | 22.8% | 20.2% | 20.0% |
| 2026-08-30 02:00:00 | 56.12 | 0.00 | 5.61 | 181 | 7.08 | 183 | 81.9 | 881.0 | 0.0 | -0.2 | 75.02 | 77.18 | 78.44 | 76.28 | 74.30 | 11.3% | 12.7% | 22.8% | 20.2% | 19.8% |
| 2026-08-30 03:00:00 | 55.29 | 0.00 | 6.20 | 177 | 7.70 | 184 | 84.9 | 881.0 | 0.0 | -0.2 | 73.94 | 76.28 | 78.08 | 76.46 | 74.30 | 11.0% | 12.4% | 22.7% | 20.2% | 19.9% |
| 2026-08-30 04:00:00 | 56.30 | 0.00 | 5.12 | 187 | 9.94 | 203 | 81.6 | 881.0 | 0.0 | -0.3 | 73.22 | 75.74 | 77.72 | 76.46 | 74.30 | 11.0% | 11.9% | 22.7% | 20.2% | 19.7% |
| 2026-08-30 05:00:00 | 53.87 | 0.00 | 3.56 | 158 | 8.32 | 187 | 83.1 | 881.0 | 0.0 | -0.3 | 72.50 | 75.02 | 77.36 | 76.46 | 74.30 | 10.9% | 12.1% | 22.7% | 20.2% | 19.9% |
| 2026-08-30 06:00:00 | 54.99 | 0.00 | 7.02 | 171 | 7.58 | 172 | 82.8 | 882.0 | 0.0 | -0.1 | 71.78 | 74.30 | 76.82 | 76.46 | 74.30 | 10.7% | 11.8% | 22.7% | 20.2% | 20.2% |
| 2026-08-30 07:00:00 | 64.99 | 0.00 | 6.08 | 210 | 9.19 | 212 | 59.2 | 882.0 | 0.0 | 0.0 | 71.24 | 73.76 | 76.46 | 76.46 | 74.48 | 10.6% | 12.0% | 22.6% | 20.2% | 20.0% |
| 2026-08-30 08:00:00 | 68.13 | 0.00 | 7.41 | 185 | 10.56 | 246 | 51.5 | 882.0 | 451.0 | -0.1 | 71.78 | 73.40 | 76.10 | 76.46 | 74.30 | 10.5% | 11.8% | 22.7% | 20.2% | 19.8% |
| 2026-08-30 09:00:00 | 72.82 | 0.00 | 5.06 | 161 | 9.07 | 161 | 46.2 | 882.0 | 650.7 | -0.3 | 73.94 | 73.58 | 75.74 | 76.46 | 74.30 | 11.0% | 12.0% | 22.6% | 20.2% | 20.0% |
| 2026-08-30 10:00:00 | 77.92 | 0.00 | 1.79 | 95 | 8.20 | 150 | 41.9 | 882.0 | 793.6 | -0.2 | 76.82 | 74.48 | 75.56 | 76.28 | 74.30 | 11.3% | 12.3% | 22.6% | 20.2% | 19.7% |
| 2026-08-30 11:00:00 | 81.61 | 0.00 | 3.84 | 343 | 8.82 | 104 | 33.6 | 881.0 | 912.0 | -0.2 | 80.24 | 76.28 | 75.56 | 76.28 | 74.30 | 11.5% | 12.7% | 22.6% | 20.2% | 20.0% |
| 2026-08-30 12:00:00 | 81.25 | 0.00 | 9.71 | 324 | 13.29 | 316 | 33.3 | 881.0 | 217.3 | -0.2 | 83.66 | 78.26 | 75.92 | 76.28 | 74.30 | 12.0% | 12.9% | 22.6% | 20.2% | 20.0% |
| 2026-08-30 13:00:00 | 67.21 | 0.00 | 32.99 | 333 | 44.96 | 329 | 55.9 | 883.0 | 0.0 | -0.2 | 84.56 | 80.06 | 76.46 | 76.10 | 74.30 | 12.2% | 13.0% | 22.6% | 20.2% | 19.9% |
| 2026-08-30 14:00:00 | 68.52 | 0.00 | 17.35 | 1 | 46.46 | 333 | 50.3 | 884.0 | 0.0 | -0.2 | 83.12 | 80.60 | 77.00 | 76.10 | 74.30 | 11.9% | 12.9% | 22.7% | 20.2% | 20.0% |
| 2026-08-30 15:00:00 | 72.16 | 0.00 | 12.97 | 34 | 26.46 | 18 | 46.2 | 883.0 | 748.8 | 0.0 | 82.94 | 80.60 | 77.36 | 76.10 | 74.30 | 11.8% | 12.8% | 22.7% | 20.2% | 19.9% |
| 2026-08-30 16:00:00 | 71.87 | 0.00 | 8.55 | 37 | 18.14 | 34 | 44.7 | 883.0 | 480.8 | -0.1 | 83.12 | 80.96 | 77.72 | 76.10 | 74.30 | 11.8% | 12.9% | 22.7% | 20.1% | 19.9% |
| 2026-08-30 17:00:00 | 73.00 | 0.00 | 5.06 | 9 | 13.91 | 20 | 41.6 | 883.0 | 279.8 | -0.2 | 82.76 | 81.14 | 78.08 | 75.92 | 74.30 | 11.9% | 13.0% | 22.8% | 20.2% | 20.0% |
| 2026-08-30 18:00:00 | 71.38 | 0.00 | 3.34 | 161 | 9.94 | 28 | 45.4 | 883.0 | 23.1 | -0.3 | 82.04 | 81.32 | 78.26 | 75.92 | 74.30 | 11.8% | 13.0% | 22.7% | 20.1% | 20.0% |
| 2026-08-30 19:00:00 | 67.21 | 0.00 | 0.13 | 318 | 6.21 | 146 | 51.4 | 883.0 | 0.0 | -0.5 | 80.78 | 80.78 | 78.44 | 75.92 | 74.30 | 11.6% | 12.8% | 22.7% | 20.2% | 19.7% |
| 2026-08-30 20:00:00 | 66.15 | 0.00 | 8.17 | 339 | 11.80 | 5 | 49.4 | 884.0 | 0.0 | -0.3 | 79.16 | 80.06 | 78.62 | 76.10 | 74.30 | 11.4% | 12.8% | 22.7% | 20.2% | 19.8% |
| 2026-08-30 21:00:00 | 60.57 | 0.00 | 4.43 | 29 | 9.94 | 330 | 54.6 | 885.0 | 0.0 | -0.4 | 77.72 | 78.98 | 78.44 | 75.92 | 74.30 | 11.4% | 12.8% | 22.7% | 20.2% | 20.0% |
| 2026-08-30 22:00:00 | 57.61 | 0.00 | 0.97 | 304 | 7.33 | 10 | 62.8 | 885.0 | 0.0 | -0.6 | 76.10 | 77.90 | 78.26 | 76.10 | 74.30 | 11.3% | 12.7% | 22.7% | 20.1% | 20.0% |
| 2026-08-30 23:00:00 | 55.00 | 0.00 | 3.37 | 211 | 6.96 | 194 | 78.6 | 885.0 | 0.0 | -0.3 | 74.66 | 77.00 | 77.90 | 76.10 | 74.30 | 10.9% | 12.4% | 22.7% | 20.1% | 19.9% |